Time;durP1;ratioP1;P1;durP2;ratioP2;P2;SDS_P1;SDS_P2;PMS_P1;PMS_P2;Temp;Humidity;BMP_temperature;BMP_pressure;BME280_temperature;BME280_humidity;BME280_pressure;Samples;Min_cycle;Max_cycle;Signal;HPM_P1;HPM_P2
2023/09/17 00:01:06;;;;;;;16.60;11.35;;;15.50;99.90;;;;;;5026909;28;20062;-56
2023/09/17 00:03:32;;;;;;;13.38;10.00;;;15.50;99.90;;;;;;5022628;28;20057;-56
2023/09/17 00:05:58;;;;;;;12.88;9.90;;;15.40;99.90;;;;;;5018560;28;20080;-56
2023/09/17 00:08:24;;;;;;;14.75;10.57;;;15.40;99.90;;;;;;5015539;28;20504;-56
2023/09/17 00:10:49;;;;;;;16.02;11.43;;;15.40;99.90;;;;;;5016941;28;20056;-56
2023/09/17 00:13:16;;;;;;;14.05;9.52;;;15.30;99.90;;;;;;5015174;28;20060;-56
2023/09/17 00:15:41;;;;;;;12.70;9.32;;;15.30;99.90;;;;;;5018822;28;20033;-56
2023/09/17 00:18:07;;;;;;;11.07;9.15;;;15.30;99.90;;;;;;5017842;28;20395;-56
2023/09/17 00:20:32;;;;;;;11.90;9.20;;;15.20;99.90;;;;;;5013914;28;20096;-56
2023/09/17 00:23:00;;;;;;;14.85;10.05;;;15.10;99.90;;;;;;5019029;28;20025;-56
2023/09/17 00:25:26;;;;;;;11.82;9.68;;;15.20;99.90;;;;;;5018156;28;20018;-56
2023/09/17 00:27:52;;;;;;;10.90;9.68;;;15.20;99.90;;;;;;5019472;28;20026;-56
2023/09/17 00:30:17;;;;;;;11.40;9.27;;;15.20;99.90;;;;;;5019922;28;20057;-56
2023/09/17 00:32:43;;;;;;;10.05;8.68;;;15.20;99.90;;;;;;5018606;28;20076;-56
2023/09/17 00:35:11;;;;;;;11.80;9.23;;;15.10;99.90;;;;;;5018343;28;20029;-56
2023/09/17 00:37:37;;;;;;;11.93;10.13;;;15.00;99.90;;;;;;5018333;28;20029;-56
2023/09/17 00:40:06;;;;;;;12.93;8.77;;;15.00;99.90;;;;;;5024334;28;20033;-56
2023/09/17 00:42:31;;;;;;;10.68;8.77;;;14.90;99.90;;;;;;5020722;28;20127;-56
2023/09/17 00:44:57;;;;;;;11.63;10.30;;;14.90;99.90;;;;;;5024554;28;20494;-56
2023/09/17 00:47:22;;;;;;;11.23;9.35;;;14.90;99.90;;;;;;5025966;28;20426;-56
2023/09/17 00:49:48;;;;;;;10.32;8.95;;;14.90;99.90;;;;;;5021693;28;20064;-57
2023/09/17 00:52:16;;;;;;;10.90;9.18;;;14.90;99.90;;;;;;5026887;28;20483;-56
2023/09/17 00:54:44;;;;;;;11.18;8.55;;;14.90;99.90;;;;;;5015117;28;20018;-56
2023/09/17 00:57:11;;;;;;;10.07;8.60;;;14.90;99.90;;;;;;5026247;28;20056;-56
2023/09/17 00:59:37;;;;;;;10.50;8.52;;;14.80;99.90;;;;;;5022954;28;20034;-56
2023/09/17 01:02:04;;;;;;;10.60;9.00;;;14.80;99.90;;;;;;5014990;28;20026;-56
2023/09/17 01:04:30;;;;;;;13.15;9.60;;;14.80;99.90;;;;;;5014001;28;20034;-56
2023/09/17 01:06:58;;;;;;;11.18;8.82;;;14.70;99.90;;;;;;5016612;28;20468;-56
2023/09/17 01:09:25;;;;;;;12.05;9.48;;;14.70;99.90;;;;;;5028358;28;20483;-56
2023/09/17 01:11:51;;;;;;;9.82;8.77;;;14.70;99.90;;;;;;5013732;28;20105;-56
2023/09/17 01:14:18;;;;;;;11.52;8.77;;;14.70;99.90;;;;;;5028530;28;20092;-56
2023/09/17 01:16:45;;;;;;;10.38;9.25;;;14.80;99.90;;;;;;5017706;28;20022;-56
2023/09/17 01:19:23;;;;;;;11.95;9.00;;;14.90;99.90;;;;;;5015922;28;20539;-56
2023/09/17 01:22:02;;;;;;;11.98;9.68;;;14.90;99.90;;;;;;5019979;28;20154;-56
2023/09/17 01:25:00;;;;;;;10.93;8.68;;;14.90;99.90;;;;;;5016568;28;20037;-56
2023/09/17 01:27:27;;;;;;;9.70;8.55;;;14.90;99.90;;;;;;5020529;28;20034;-56
2023/09/17 01:29:53;;;;;;;12.45;8.50;;;14.90;99.90;;;;;;5024452;28;20018;-56
2023/09/17 01:32:20;;;;;;;14.13;9.63;;;14.90;99.90;;;;;;5025798;28;20052;-56
2023/09/17 01:34:49;;;;;;;15.00;8.90;;;14.80;99.90;;;;;;5035621;28;20472;-56
2023/09/17 01:37:23;;;;;;;9.93;8.38;;;14.80;99.90;;;;;;5025522;28;20057;-56
2023/09/17 01:40:06;;;;;;;13.15;9.27;;;14.80;99.90;;;;;;5039318;28;20105;-56
2023/09/17 01:42:34;;;;;;;10.70;8.75;;;14.80;99.90;;;;;;5023417;28;20041;-56
2023/09/17 01:45:02;;;;;;;10.43;9.00;;;14.80;99.90;;;;;;5025659;28;20507;-55
2023/09/17 01:47:29;;;;;;;11.63;9.35;;;14.80;99.90;;;;;;5025580;28;20258;-56
2023/09/17 01:49:58;;;;;;;11.57;8.77;;;14.70;99.90;;;;;;5025392;28;20017;-56
2023/09/17 01:52:32;;;;;;;10.77;9.15;;;14.70;99.90;;;;;;5027642;28;20387;-56
2023/09/17 01:54:58;;;;;;;9.98;8.70;;;14.70;99.90;;;;;;5025144;28;20021;-56
2023/09/17 01:57:23;;;;;;;10.93;8.63;;;14.60;99.90;;;;;;5028919;28;20495;-56
2023/09/17 01:59:49;;;;;;;10.55;9.38;;;14.60;99.90;;;;;;5026494;28;20113;-56
2023/09/17 02:02:14;;;;;;;10.57;9.13;;;14.70;99.90;;;;;;5029422;28;20057;-56
2023/09/17 02:04:40;;;;;;;10.40;8.60;;;14.70;99.90;;;;;;5027805;28;20071;-56
2023/09/17 02:07:05;;;;;;;12.43;9.48;;;14.60;99.90;;;;;;5029747;28;20121;-56
2023/09/17 02:09:31;;;;;;;13.02;9.23;;;14.60;99.90;;;;;;5025189;28;20025;-56
2023/09/17 02:11:56;;;;;;;12.02;9.25;;;14.60;99.90;;;;;;5027916;28;20030;-56
2023/09/17 02:14:22;;;;;;;15.18;9.23;;;14.50;99.90;;;;;;5030379;28;20104;-56
2023/09/17 02:16:47;;;;;;;10.05;8.77;;;14.60;99.90;;;;;;5028313;28;20035;-56
2023/09/17 02:19:13;;;;;;;12.30;10.05;;;14.50;99.90;;;;;;5029886;28;20032;-56
2023/09/17 02:21:40;;;;;;;15.10;9.52;;;14.50;99.90;;;;;;5027441;28;20277;-56
2023/09/17 02:24:06;;;;;;;11.65;9.32;;;14.50;99.90;;;;;;5029654;28;20079;-56
2023/09/17 02:26:32;;;;;;;13.00;9.68;;;14.50;99.90;;;;;;5026375;28;20143;-56
2023/09/17 02:28:58;;;;;;;11.63;9.70;;;14.50;99.90;;;;;;5022861;28;20033;-56
2023/09/17 02:31:24;;;;;;;13.93;9.98;;;14.50;99.90;;;;;;5028877;28;20471;-56
2023/09/17 02:33:49;;;;;;;10.60;9.23;;;14.50;99.90;;;;;;5020890;28;20029;-56
2023/09/17 02:36:15;;;;;;;11.57;8.88;;;14.50;99.90;;;;;;5029508;28;20513;-56
2023/09/17 02:38:43;;;;;;;10.77;8.70;;;14.40;99.90;;;;;;5027789;28;20116;-56
2023/09/17 02:41:09;;;;;;;10.60;8.68;;;14.40;99.90;;;;;;5028905;28;20026;-56
2023/09/17 02:43:36;;;;;;;12.43;8.80;;;14.50;99.90;;;;;;5026404;28;20029;-57
2023/09/17 02:46:05;;;;;;;12.32;8.90;;;14.50;99.90;;;;;;5025744;28;20017;-57
2023/09/17 02:48:32;;;;;;;9.70;8.45;;;14.50;99.90;;;;;;5026555;28;20029;-57
2023/09/17 02:50:58;;;;;;;12.13;9.75;;;14.50;99.90;;;;;;5021901;28;20026;-57
2023/09/17 02:53:23;;;;;;;12.25;9.75;;;14.60;99.90;;;;;;5030855;28;20102;-57
2023/09/17 02:55:49;;;;;;;12.55;9.95;;;14.70;99.90;;;;;;5019232;28;20499;-57
2023/09/17 02:58:15;;;;;;;11.35;9.43;;;14.70;99.90;;;;;;5022949;28;20084;-57
2023/09/17 03:00:43;;;;;;;9.88;8.55;;;14.80;99.90;;;;;;5026645;28;20017;-57
2023/09/17 03:03:08;;;;;;;14.75;9.48;;;14.80;99.90;;;;;;5029497;28;20490;-57
2023/09/17 03:05:34;;;;;;;12.77;9.88;;;14.90;99.90;;;;;;5028519;28;20060;-56
2023/09/17 03:07:59;;;;;;;12.40;9.60;;;14.90;99.90;;;;;;5022957;28;20029;-55
2023/09/17 03:10:26;;;;;;;11.10;9.88;;;14.90;99.90;;;;;;5030209;28;20371;-55
2023/09/17 03:12:52;;;;;;;14.35;9.35;;;14.90;99.90;;;;;;5031537;28;20467;-56
2023/09/17 03:15:17;;;;;;;11.43;8.73;;;14.90;99.90;;;;;;5028955;28;20034;-56
2023/09/17 03:17:43;;;;;;;11.52;9.18;;;15.00;99.90;;;;;;5023210;28;20026;-56
2023/09/17 03:20:18;;;;;;;10.40;9.00;;;15.00;99.90;;;;;;5029301;28;20029;-56
2023/09/17 03:22:44;;;;;;;11.05;9.07;;;15.00;99.90;;;;;;5021789;28;20058;-56
2023/09/17 03:25:12;;;;;;;10.27;8.82;;;15.00;99.90;;;;;;5030134;28;20331;-56
2023/09/17 03:27:40;;;;;;;12.82;10.07;;;15.10;99.90;;;;;;5029014;28;20029;-56
2023/09/17 03:30:07;;;;;;;10.93;9.25;;;15.10;99.90;;;;;;5029240;28;20021;-56
2023/09/17 03:32:33;;;;;;;10.25;8.95;;;15.10;99.90;;;;;;5023271;28;20117;-56
2023/09/17 03:34:58;;;;;;;11.05;9.95;;;15.10;99.90;;;;;;5029595;28;20264;-57
2023/09/17 03:37:25;;;;;;;11.95;9.13;;;15.10;99.90;;;;;;5027683;28;20096;-57
2023/09/17 03:40:10;;;;;;;14.65;9.60;;;15.10;99.90;;;;;;5023558;28;20046;-57
2023/09/17 03:42:38;;;;;;;11.75;10.55;;;15.20;99.90;;;;;;5029336;28;20045;-57
2023/09/17 03:45:09;;;;;;;12.75;9.82;;;15.20;99.90;;;;;;5029569;28;20025;-56
2023/09/17 03:47:38;;;;;;;11.65;9.15;;;15.20;99.90;;;;;;5025150;28;20464;-57
2023/09/17 03:50:06;;;;;;;11.63;10.43;;;15.30;99.90;;;;;;5026683;28;20056;-57
2023/09/17 03:52:36;;;;;;;11.73;9.38;;;15.30;99.90;;;;;;5028873;28;20394;-57
2023/09/17 03:55:05;;;;;;;12.75;10.23;;;15.20;99.90;;;;;;5022727;28;20229;-57
2023/09/17 03:57:34;;;;;;;12.70;10.07;;;15.30;99.90;;;;;;5028944;28;20036;-57
2023/09/17 03:59:59;;;;;;;11.05;9.82;;;15.30;99.90;;;;;;5026880;28;20400;-57
2023/09/17 04:02:25;;;;;;;12.27;9.75;;;15.30;99.90;;;;;;5029209;28;20033;-57
2023/09/17 04:04:51;;;;;;;11.30;10.02;;;15.30;99.90;;;;;;5027823;28;20531;-56
2023/09/17 04:07:16;;;;;;;11.45;10.07;;;15.30;99.90;;;;;;5030472;28;20030;-57
2023/09/17 04:09:42;;;;;;;10.48;9.35;;;15.30;99.90;;;;;;5026422;28;20025;-57
2023/09/17 04:12:08;;;;;;;12.30;9.63;;;15.30;99.90;;;;;;5023752;28;20064;-57
2023/09/17 04:14:34;;;;;;;14.45;10.23;;;15.30;99.90;;;;;;5027761;28;20030;-57
2023/09/17 04:17:05;;;;;;;10.52;9.43;;;15.40;99.90;;;;;;5029640;28;20022;-56
2023/09/17 04:19:31;;;;;;;10.85;9.75;;;15.40;99.90;;;;;;5025914;28;20064;-57
2023/09/17 04:21:57;;;;;;;9.95;8.95;;;15.40;99.90;;;;;;5027331;28;20014;-56
2023/09/17 04:24:23;;;;;;;10.38;9.27;;;15.40;99.90;;;;;;5029849;28;20093;-57
2023/09/17 04:26:49;;;;;;;11.70;9.48;;;15.40;99.90;;;;;;5029147;28;20022;-57
2023/09/17 04:29:14;;;;;;;10.70;9.55;;;15.30;99.90;;;;;;5029030;28;20171;-57
2023/09/17 04:31:40;;;;;;;12.15;9.55;;;15.40;99.90;;;;;;5020604;28;20116;-57
2023/09/17 04:34:05;;;;;;;9.98;8.98;;;15.30;99.90;;;;;;5022708;28;20072;-57
2023/09/17 04:36:31;;;;;;;11.18;9.55;;;15.30;99.90;;;;;;5029699;28;20026;-57
2023/09/17 04:38:56;;;;;;;13.30;9.60;;;15.30;99.90;;;;;;5027079;28;20030;-57
2023/09/17 04:41:22;;;;;;;13.00;10.23;;;15.40;99.90;;;;;;5022931;28;20022;-57
2023/09/17 04:43:47;;;;;;;11.70;9.25;;;15.40;99.90;;;;;;5028920;28;20379;-57
2023/09/17 04:46:13;;;;;;;13.88;10.57;;;15.40;99.90;;;;;;5029173;28;20207;-57
2023/09/17 04:48:39;;;;;;;11.07;9.05;;;15.40;99.90;;;;;;5026686;28;20025;-57
2023/09/17 04:51:07;;;;;;;11.02;9.80;;;15.40;99.90;;;;;;5012176;28;20029;-56
2023/09/17 04:53:33;;;;;;;12.00;9.05;;;15.40;99.90;;;;;;5007867;28;20030;-57
2023/09/17 04:55:59;;;;;;;12.00;9.68;;;15.40;99.90;;;;;;5009109;28;20561;-57
2023/09/17 04:58:25;;;;;;;10.70;9.63;;;15.50;99.90;;;;;;5009018;28;20030;-57
2023/09/17 05:00:53;;;;;;;11.20;9.27;;;15.50;99.90;;;;;;5010832;28;20021;-57
2023/09/17 05:03:19;;;;;;;11.40;9.63;;;15.50;99.90;;;;;;5018057;28;20032;-57
2023/09/17 05:05:46;;;;;;;11.15;9.93;;;15.50;99.90;;;;;;5019740;28;20104;-57
2023/09/17 05:08:13;;;;;;;13.35;9.95;;;15.50;99.90;;;;;;5016810;28;20022;-57
2023/09/17 05:10:39;;;;;;;17.08;10.30;;;15.50;99.90;;;;;;5017644;28;20022;-57
2023/09/17 05:13:05;;;;;;;10.60;8.80;;;15.60;99.90;;;;;;5014926;28;20026;-57
2023/09/17 05:15:31;;;;;;;13.13;10.13;;;15.60;99.90;;;;;;5032665;28;20022;-57
2023/09/17 05:17:56;;;;;;;11.73;9.30;;;15.60;99.90;;;;;;5021385;28;20484;-57
2023/09/17 05:20:23;;;;;;;11.52;9.27;;;15.60;99.90;;;;;;5017134;28;20036;-57
2023/09/17 05:22:48;;;;;;;10.55;8.90;;;15.70;99.90;;;;;;5014088;28;20021;-57
2023/09/17 05:25:14;;;;;;;9.95;8.95;;;15.70;99.90;;;;;;5008358;28;20030;-57
2023/09/17 05:27:39;;;;;;;15.25;10.35;;;15.70;99.90;;;;;;5008018;28;20030;-57
2023/09/17 05:30:06;;;;;;;12.13;9.38;;;15.80;99.90;;;;;;5009425;28;20049;-56
2023/09/17 05:32:31;;;;;;;11.65;8.98;;;15.80;99.90;;;;;;5012645;28;20115;-56
2023/09/17 05:34:59;;;;;;;12.07;8.75;;;15.80;99.90;;;;;;5009819;28;20045;-57
2023/09/17 05:37:25;;;;;;;11.02;9.65;;;15.80;99.90;;;;;;4980185;28;1027309;-57
2023/09/17 05:39:51;;;;;;;12.43;9.73;;;15.90;99.90;;;;;;5018365;28;20022;-57
2023/09/17 05:42:16;;;;;;;12.55;9.15;;;15.90;99.90;;;;;;5014210;28;20030;-57
2023/09/17 05:44:42;;;;;;;12.07;9.77;;;16.00;99.90;;;;;;5017546;28;20030;-57
2023/09/17 05:47:08;;;;;;;10.60;8.95;;;16.00;99.90;;;;;;5010450;28;20026;-58
2023/09/17 05:49:33;;;;;;;9.13;8.20;;;16.00;99.90;;;;;;5016350;28;20029;-57
2023/09/17 05:51:59;;;;;;;10.88;8.68;;;16.00;99.90;;;;;;5010745;28;20049;-57
2023/09/17 05:54:25;;;;;;;9.45;7.65;;;16.10;99.90;;;;;;5016142;28;20092;-57
2023/09/17 05:56:50;;;;;;;12.10;9.23;;;16.10;99.90;;;;;;5018130;28;20069;-57
2023/09/17 05:59:17;;;;;;;13.02;9.23;;;16.10;99.90;;;;;;5019467;28;20403;-57
2023/09/17 06:01:42;;;;;;;9.07;8.07;;;16.10;99.90;;;;;;5018328;28;20021;-57
2023/09/17 06:04:08;;;;;;;10.23;9.13;;;16.10;99.90;;;;;;5018434;28;20026;-57
2023/09/17 06:06:33;;;;;;;11.52;9.52;;;16.20;99.90;;;;;;5020076;28;20442;-57
2023/09/17 06:08:59;;;;;;;11.13;9.70;;;16.20;99.90;;;;;;5018402;28;20036;-57
2023/09/17 06:11:24;;;;;;;10.85;8.48;;;16.30;99.90;;;;;;5010124;28;20644;-57
2023/09/17 06:13:50;;;;;;;10.48;8.05;;;16.40;99.90;;;;;;5011573;28;20459;-57
2023/09/17 06:16:15;;;;;;;13.85;9.00;;;16.50;99.90;;;;;;5015993;28;20026;-56
2023/09/17 06:18:41;;;;;;;9.80;8.35;;;16.50;99.90;;;;;;5011312;28;20057;-56
2023/09/17 06:21:07;;;;;;;8.85;7.95;;;16.50;99.90;;;;;;5011430;28;20017;-56
2023/09/17 06:23:33;;;;;;;9.55;8.55;;;16.50;99.90;;;;;;5017819;28;20434;-57
2023/09/17 06:25:59;;;;;;;9.00;8.10;;;16.60;99.90;;;;;;5013245;28;20029;-56
2023/09/17 06:28:24;;;;;;;8.85;7.93;;;16.60;99.90;;;;;;5010472;28;20022;-56
2023/09/17 06:30:50;;;;;;;11.45;8.48;;;16.60;99.90;;;;;;5013771;28;20487;-56
2023/09/17 06:33:15;;;;;;;10.75;8.75;;;16.70;99.90;;;;;;5010473;28;20475;-56
2023/09/17 06:35:41;;;;;;;8.88;7.47;;;16.80;99.90;;;;;;5017580;28;20052;-56
2023/09/17 06:38:06;;;;;;;9.48;8.48;;;16.90;99.90;;;;;;5019426;28;20471;-56
2023/09/17 06:40:32;;;;;;;10.82;8.30;;;17.00;99.90;;;;;;5013728;28;20035;-56
2023/09/17 06:42:58;;;;;;;9.55;7.65;;;17.10;99.90;;;;;;5021226;28;20025;-56
2023/09/17 06:45:23;;;;;;;11.55;7.55;;;17.20;99.90;;;;;;5015482;28;20860;-56
2023/09/17 06:47:49;;;;;;;8.82;7.85;;;17.30;99.90;;;;;;5020080;28;20346;-56
2023/09/17 06:50:15;;;;;;;8.50;7.70;;;17.40;99.90;;;;;;5014400;28;20021;-56
2023/09/17 06:52:40;;;;;;;8.15;7.35;;;17.40;99.90;;;;;;5015175;28;20084;-56
2023/09/17 06:55:06;;;;;;;8.30;7.50;;;17.50;99.90;;;;;;5021431;28;20073;-56
2023/09/17 06:57:32;;;;;;;8.73;7.80;;;17.60;99.90;;;;;;5019095;28;20022;-56
2023/09/17 06:59:57;;;;;;;9.00;8.13;;;17.60;99.90;;;;;;5023823;28;20014;-56
2023/09/17 07:02:23;;;;;;;7.65;6.95;;;17.70;99.90;;;;;;5042251;28;20025;-56
2023/09/17 07:04:49;;;;;;;8.57;7.60;;;17.80;99.90;;;;;;5018337;28;20515;-56
2023/09/17 07:07:15;;;;;;;10.63;7.50;;;17.90;99.90;;;;;;5017676;28;20030;-56
2023/09/17 07:09:40;;;;;;;9.32;7.72;;;18.00;99.90;;;;;;5022068;28;20041;-56
2023/09/17 07:12:06;;;;;;;8.07;7.28;;;18.10;99.90;;;;;;5028032;28;20025;-57
2023/09/17 07:14:32;;;;;;;10.20;7.45;;;18.10;99.90;;;;;;5014668;28;20493;-55
2023/09/17 07:16:57;;;;;;;10.73;7.35;;;18.20;99.90;;;;;;5021328;28;20352;-55
2023/09/17 07:19:23;;;;;;;9.15;7.13;;;18.20;99.90;;;;;;5014635;28;20438;-55
2023/09/17 07:21:48;;;;;;;11.18;7.75;;;18.20;99.90;;;;;;5015673;28;20161;-56
2023/09/17 07:24:14;;;;;;;8.73;7.20;;;18.30;99.90;;;;;;5018766;28;20430;-56
2023/09/17 07:26:40;;;;;;;8.60;7.72;;;18.30;99.90;;;;;;5021768;28;20489;-56
2023/09/17 07:29:05;;;;;;;7.55;6.85;;;18.30;99.90;;;;;;5022056;28;20026;-56
2023/09/17 07:31:31;;;;;;;10.50;8.65;;;18.30;99.90;;;;;;5013728;28;20026;-55
2023/09/17 07:33:56;;;;;;;10.73;8.52;;;18.40;99.90;;;;;;5016142;28;20027;-56
2023/09/17 07:36:22;;;;;;;10.27;8.20;;;18.50;99.90;;;;;;5017844;28;20391;-55
2023/09/17 07:38:47;;;;;;;9.30;8.30;;;18.50;99.90;;;;;;5019846;28;20026;-56
2023/09/17 07:41:13;;;;;;;10.38;7.53;;;18.60;99.90;;;;;;5017033;28;20034;-56
2023/09/17 07:43:38;;;;;;;9.32;8.00;;;18.80;99.90;;;;;;5020170;28;20053;-56
2023/09/17 07:46:05;;;;;;;8.82;7.47;;;19.00;99.90;;;;;;5015239;28;20026;-56
2023/09/17 07:48:30;;;;;;;8.13;7.32;;;19.20;99.90;;;;;;5014947;28;20467;-57
2023/09/17 07:51:00;;;;;;;9.77;7.47;;;19.30;99.90;;;;;;5014701;28;20038;-56
2023/09/17 07:53:26;;;;;;;8.43;7.53;;;19.40;99.90;;;;;;5020804;28;20483;-56
2023/09/17 07:55:53;;;;;;;7.38;6.68;;;19.50;99.90;;;;;;5017219;28;20553;-57
2023/09/17 07:58:19;;;;;;;7.75;6.90;;;19.60;99.90;;;;;;5018606;28;20026;-56
2023/09/17 08:00:45;;;;;;;9.38;6.60;;;19.70;99.90;;;;;;5028157;28;20067;-56
2023/09/17 08:03:16;;;;;;;8.05;6.60;;;19.80;99.90;;;;;;5021115;28;20506;-55
2023/09/17 08:05:45;;;;;;;7.18;6.43;;;20.00;99.90;;;;;;5014509;28;20029;-56
2023/09/17 08:08:10;;;;;;;9.18;6.40;;;20.10;99.90;;;;;;5017368;28;20479;-56
2023/09/17 08:10:37;;;;;;;8.27;7.15;;;20.20;99.90;;;;;;5034865;28;20033;-55
2023/09/17 08:13:03;;;;;;;6.55;5.95;;;20.40;99.90;;;;;;5015097;28;20030;-56
2023/09/17 08:15:29;;;;;;;8.60;6.07;;;20.60;99.90;;;;;;5019005;28;20223;-56
2023/09/17 08:17:56;;;;;;;7.82;6.07;;;20.90;99.90;;;;;;5017296;28;20045;-56
2023/09/17 08:20:22;;;;;;;6.50;5.80;;;21.20;99.90;;;;;;5016409;28;20026;-56
2023/09/17 08:22:49;;;;;;;7.20;6.50;;;21.30;99.90;;;;;;5018065;28;20100;-56
2023/09/17 08:25:15;;;;;;;7.35;5.60;;;21.50;99.90;;;;;;5019236;28;20604;-56
2023/09/17 08:27:41;;;;;;;6.18;5.57;;;21.80;99.90;;;;;;5017061;28;20029;-56
2023/09/17 08:30:11;;;;;;;9.10;6.63;;;21.90;99.90;;;;;;5016574;28;20033;-56
2023/09/17 08:32:40;;;;;;;7.27;5.50;;;22.10;99.90;;;;;;5019807;28;20057;-56
2023/09/17 08:35:07;;;;;;;6.18;5.57;;;23.60;99.90;;;;;;5017182;28;20028;-56
2023/09/17 08:37:34;;;;;;;6.07;5.25;;;25.20;99.90;;;;;;5020154;28;20377;-56
2023/09/17 08:40:00;;;;;;;8.60;4.72;;;26.60;99.90;;;;;;5016244;28;20236;-56
2023/09/17 08:42:27;;;;;;;5.95;4.20;;;28.40;97.40;;;;;;5018761;28;20029;-56
2023/09/17 08:44:56;;;;;;;4.78;4.00;;;29.60;93.70;;;;;;5019713;28;20047;-56
2023/09/17 08:47:22;;;;;;;4.77;4.20;;;31.10;91.10;;;;;;5020001;28;20502;-55
2023/09/17 08:49:48;;;;;;;6.82;3.95;;;32.20;86.60;;;;;;5020168;28;20021;-56
2023/09/17 08:52:17;;;;;;;5.18;4.68;;;32.90;84.00;;;;;;5014042;28;20033;-55
2023/09/17 08:54:43;;;;;;;6.38;4.18;;;32.30;83.80;;;;;;5015144;28;20033;-55
2023/09/17 08:57:12;;;;;;;4.50;3.75;;;31.70;83.70;;;;;;5016666;28;20022;-55
2023/09/17 08:59:43;;;;;;;4.72;3.15;;;30.90;84.40;;;;;;5021384;28;20121;-55
2023/09/17 09:02:32;;;;;;;4.20;3.80;;;30.40;84.60;;;;;;5020888;28;20040;-55
2023/09/17 09:05:00;;;;;;;5.30;3.92;;;29.70;86.30;;;;;;5016491;28;20243;-55
2023/09/17 09:07:27;;;;;;;4.88;4.00;;;28.80;89.20;;;;;;5022506;28;20475;-55
2023/09/17 09:09:54;;;;;;;7.32;4.60;;;28.10;90.10;;;;;;5016474;28;20064;-55
2023/09/17 09:12:21;;;;;;;5.22;4.30;;;27.60;91.90;;;;;;5015498;28;20036;-55
2023/09/17 09:14:47;;;;;;;4.88;4.22;;;27.30;91.40;;;;;;5015466;28;20018;-55
2023/09/17 09:17:13;;;;;;;5.20;4.70;;;27.10;91.90;;;;;;5026607;28;20033;-55
2023/09/17 09:19:39;;;;;;;5.82;4.70;;;27.00;93.00;;;;;;5017200;28;20033;-55
2023/09/17 09:22:05;;;;;;;5.47;4.18;;;27.70;92.80;;;;;;5013367;28;20026;-56
2023/09/17 09:24:41;;;;;;;4.65;3.22;;;29.10;91.00;;;;;;5014096;28;20373;-55
2023/09/17 09:27:07;;;;;;;4.50;3.10;;;30.70;82.10;;;;;;5017063;28;20033;-56
2023/09/17 09:29:33;;;;;;;3.50;3.20;;;32.20;82.30;;;;;;5015649;28;20029;-56
2023/09/17 09:31:59;;;;;;;5.55;3.20;;;33.60;77.60;;;;;;5021681;28;20116;-56
2023/09/17 09:34:27;;;;;;;4.43;3.28;;;34.60;75.60;;;;;;5014210;28;20034;-56
2023/09/17 09:36:54;;;;;;;3.33;3.03;;;35.10;70.70;;;;;;5022425;28;20502;-55
2023/09/17 09:39:20;;;;;;;3.60;3.00;;;34.60;70.40;;;;;;5020124;28;20036;-56
2023/09/17 09:41:47;;;;;;;3.10;2.80;;;34.30;71.40;;;;;;5030048;28;20061;-56
2023/09/17 09:44:13;;;;;;;5.13;2.97;;;34.10;70.80;;;;;;5014484;28;20032;-56
2023/09/17 09:46:40;;;;;;;3.20;2.90;;;33.60;69.70;;;;;;5019484;28;20022;-56
2023/09/17 09:49:06;;;;;;;7.13;3.40;;;34.50;69.20;;;;;;5015110;28;20072;-56
2023/09/17 09:51:31;;;;;;;3.95;2.90;;;35.20;67.00;;;;;;5017839;28;20455;-56
2023/09/17 09:53:57;;;;;;;5.05;2.83;;;36.10;65.10;;;;;;5016205;28;20041;-55
2023/09/17 09:56:27;;;;;;;3.42;2.75;;;36.50;64.20;;;;;;5017720;28;20454;-56
2023/09/17 09:58:58;;;;;;;5.88;3.00;;;36.70;64.00;;;;;;5031628;28;20036;-55
2023/09/17 10:01:25;;;;;;;5.05;3.15;;;37.20;63.20;;;;;;5014389;28;20026;-56
2023/09/17 10:03:51;;;;;;;3.55;2.92;;;37.80;63.80;;;;;;5019074;28;20030;-56
2023/09/17 10:06:17;;;;;;;3.28;2.90;;;38.00;64.30;;;;;;5016569;28;20479;-56
2023/09/17 10:08:43;;;;;;;4.60;2.53;;;38.00;61.90;;;;;;5017652;28;20485;-56
2023/09/17 10:11:09;;;;;;;6.45;2.50;;;38.60;62.20;;;;;;5015611;28;20049;-55
2023/09/17 10:13:35;;;;;;;5.63;3.25;;;38.90;60.60;;;;;;5015490;28;20105;-56
2023/09/17 10:16:02;;;;;;;5.60;3.05;;;39.00;62.40;;;;;;5019571;28;20051;-56
2023/09/17 10:18:31;;;;;;;5.53;3.00;;;38.10;59.70;;;;;;5034131;28;20080;-56
2023/09/17 10:20:57;;;;;;;2.92;2.72;;;38.00;60.90;;;;;;5020591;28;20029;-56
2023/09/17 10:23:23;;;;;;;4.15;2.85;;;38.50;61.10;;;;;;5022727;28;20030;-56
2023/09/17 10:25:50;;;;;;;3.40;2.95;;;38.80;61.30;;;;;;5022223;28;20383;-56
2023/09/17 10:28:17;;;;;;;2.85;2.65;;;39.10;60.00;;;;;;5016681;28;20029;-56
2023/09/17 10:30:45;;;;;;;4.75;3.05;;;39.40;58.90;;;;;;5019195;28;20453;-56
2023/09/17 10:33:13;;;;;;;3.53;2.95;;;39.30;57.80;;;;;;5018825;28;20053;-56
2023/09/17 10:35:39;;;;;;;4.57;2.77;;;39.10;58.90;;;;;;5019889;28;20117;-55
2023/09/17 10:38:07;;;;;;;3.50;2.65;;;39.00;58.60;;;;;;5035534;28;20078;-56
2023/09/17 10:40:35;;;;;;;3.60;2.60;;;38.50;58.70;;;;;;5021690;28;20036;-56
2023/09/17 10:43:02;;;;;;;3.95;2.88;;;37.60;60.00;;;;;;5015407;28;21517;-56
2023/09/17 10:45:32;;;;;;;3.38;3.08;;;37.00;60.00;;;;;;5023876;28;20467;-55
2023/09/17 10:47:59;;;;;;;4.60;2.70;;;35.70;61.40;;;;;;5020067;28;20030;-55
2023/09/17 10:50:27;;;;;;;3.80;3.28;;;35.00;63.40;;;;;;5017163;28;20038;-55
2023/09/17 10:52:53;;;;;;;7.95;3.38;;;34.00;66.00;;;;;;5035935;28;20037;-55
2023/09/17 10:55:22;;;;;;;3.53;3.20;;;33.30;65.30;;;;;;5021076;28;20029;-55
2023/09/17 10:57:59;;;;;;;3.42;3.05;;;32.70;66.40;;;;;;5039265;28;20037;-55
2023/09/17 11:00:25;;;;;;;3.45;2.95;;;32.20;68.60;;;;;;5023966;28;20515;-55
2023/09/17 11:02:55;;;;;;;4.28;3.53;;;31.70;71.40;;;;;;5019161;28;20024;-55
2023/09/17 11:05:24;;;;;;;4.45;3.67;;;30.90;69.30;;;;;;5016317;28;20100;-55
2023/09/17 11:07:54;;;;;;;5.47;4.10;;;30.40;70.00;;;;;;5041232;28;20125;-55
2023/09/17 11:10:20;;;;;;;;;;;30.00;74.30;;;;;;5020700;28;20352;-55
2023/09/17 11:12:47;;;;;;;4.25;3.45;;;29.60;72.20;;;;;;5018765;28;19923;-55
2023/09/17 11:15:13;;;;;;;4.25;3.67;;;29.30;72.40;;;;;;5020495;28;20034;-55
2023/09/17 11:17:40;;;;;;;4.00;3.60;;;29.30;75.00;;;;;;5022253;28;20391;-55
2023/09/17 11:20:16;;;;;;;4.35;3.38;;;29.30;75.30;;;;;;5021076;28;20013;-55
2023/09/17 11:22:43;;;;;;;3.65;3.13;;;29.50;74.40;;;;;;5020169;28;20045;-55
2023/09/17 11:25:10;;;;;;;3.33;3.05;;;29.60;76.40;;;;;;5020390;28;20045;-55
2023/09/17 11:27:52;;;;;;;5.07;3.50;;;29.90;73.50;;;;;;5019505;28;20022;-55
2023/09/17 11:30:22;;;;;;;7.10;4.18;;;30.30;76.30;;;;;;5020067;28;20026;-55
2023/09/17 11:32:50;;;;;;;;;;;30.60;74.70;;;;;;5022242;28;20026;-55
2023/09/17 11:35:15;;;;;;;5.30;3.97;;;30.90;69.70;;;;;;5024756;28;19905;-55
2023/09/17 11:37:41;;;;;;;4.20;3.40;;;31.00;72.70;;;;;;5019554;28;20092;-55
2023/09/17 11:40:10;;;;;;;4.35;3.45;;;31.00;70.30;;;;;;5022055;28;20040;-55
2023/09/17 11:42:36;;;;;;;6.85;3.45;;;30.90;69.40;;;;;;5022366;28;20026;-55
2023/09/17 11:45:02;;;;;;;4.40;3.80;;;30.90;71.70;;;;;;5019096;28;20557;-55
2023/09/17 11:47:28;;;;;;;4.95;3.20;;;31.30;70.30;;;;;;5034563;28;20022;-55
2023/09/17 11:49:54;;;;;;;4.20;3.60;;;31.20;68.40;;;;;;5016100;28;20490;-55
2023/09/17 11:52:21;;;;;;;5.28;3.60;;;31.60;68.10;;;;;;5018821;28;20481;-55
2023/09/17 11:54:50;;;;;;;3.67;3.35;;;31.50;66.90;;;;;;5017618;28;20013;-55
2023/09/17 11:57:23;;;;;;;3.83;2.50;;;31.00;68.00;;;;;;5020208;28;20087;-55
2023/09/17 11:59:49;;;;;;;3.55;3.10;;;30.70;71.60;;;;;;5018132;28;20021;-55
2023/09/17 12:02:17;;;;;;;4.20;2.92;;;30.50;71.10;;;;;;5020748;28;20028;-55
2023/09/17 12:04:43;;;;;;;3.70;2.97;;;30.40;70.20;;;;;;5017761;28;20032;-55
2023/09/17 12:07:11;;;;;;;3.85;2.97;;;30.10;69.90;;;;;;5019803;28;20022;-55
2023/09/17 12:10:02;;;;;;;4.07;3.15;;;30.00;71.60;;;;;;5019537;28;20092;-56
2023/09/17 12:12:31;;;;;;;4.85;3.05;;;29.70;70.90;;;;;;5018773;28;20550;-56
2023/09/17 12:14:58;;;;;;;4.03;3.30;;;29.50;72.90;;;;;;5016362;28;20091;-55
2023/09/17 12:17:23;;;;;;;3.55;3.08;;;29.20;72.10;;;;;;5017736;28;20507;-55
2023/09/17 12:20:30;;;;;;;3.33;3.08;;;29.00;73.60;;;;;;5018468;28;20033;-55
2023/09/17 12:22:56;;;;;;;3.65;3.22;;;28.90;75.50;;;;;;5024431;28;20076;-55
2023/09/17 12:25:23;;;;;;;6.15;3.55;;;28.70;75.10;;;;;;5014125;28;20095;-55
2023/09/17 12:27:49;;;;;;;4.85;3.15;;;28.70;74.30;;;;;;5033729;28;20022;-55
2023/09/17 12:30:15;;;;;;;4.72;3.10;;;28.80;75.20;;;;;;5017024;28;20026;-56
2023/09/17 12:32:41;;;;;;;3.22;2.92;;;29.00;75.30;;;;;;5019009;28;20088;-56
2023/09/17 12:35:07;;;;;;;3.40;3.08;;;29.20;74.00;;;;;;5021063;28;20466;-56
2023/09/17 12:37:32;;;;;;;4.03;2.75;;;29.90;76.00;;;;;;5021685;28;20502;-56
2023/09/17 12:39:58;;;;;;;4.70;2.88;;;30.40;73.90;;;;;;5019251;28;20033;-56